sensor_id;sensor_type;location;lat;lon;timestamp;P1;durP1;ratioP1;P2;durP2;ratioP2
7213;SDS011;3648;50.614;13.830;2022-08-19T00:01:19;12.63;;;8.63;;
7213;SDS011;3648;50.614;13.830;2022-08-19T00:03:47;10.50;;;9.50;;
7213;SDS011;3648;50.614;13.830;2022-08-19T00:06:14;10.07;;;9.27;;
7213;SDS011;3648;50.614;13.830;2022-08-19T00:08:42;9.40;;;8.70;;
7213;SDS011;3648;50.614;13.830;2022-08-19T00:11:11;10.50;;;9.50;;
7213;SDS011;3648;50.614;13.830;2022-08-19T00:13:38;10.53;;;9.50;;
7213;SDS011;3648;50.614;13.830;2022-08-19T00:16:06;11.00;;;9.90;;
7213;SDS011;3648;50.614;13.830;2022-08-19T00:18:33;10.57;;;9.67;;
7213;SDS011;3648;50.614;13.830;2022-08-19T00:21:01;11.23;;;10.20;;
7213;SDS011;3648;50.614;13.830;2022-08-19T00:23:32;10.80;;;9.67;;
7213;SDS011;3648;50.614;13.830;2022-08-19T00:26:01;11.33;;;10.23;;
7213;SDS011;3648;50.614;13.830;2022-08-19T00:28:30;10.60;;;9.67;;
7213;SDS011;3648;50.614;13.830;2022-08-19T00:30:58;11.07;;;10.07;;
7213;SDS011;3648;50.614;13.830;2022-08-19T00:33:25;10.50;;;9.43;;
7213;SDS011;3648;50.614;13.830;2022-08-19T00:35:52;10.60;;;9.60;;
7213;SDS011;3648;50.614;13.830;2022-08-19T00:38:21;10.97;;;9.97;;
7213;SDS011;3648;50.614;13.830;2022-08-19T00:40:48;12.07;;;10.87;;
7213;SDS011;3648;50.614;13.830;2022-08-19T00:43:17;11.60;;;10.60;;
7213;SDS011;3648;50.614;13.830;2022-08-19T00:45:47;11.57;;;10.47;;
7213;SDS011;3648;50.614;13.830;2022-08-19T00:48:15;12.60;;;11.50;;
7213;SDS011;3648;50.614;13.830;2022-08-19T00:50:42;12.37;;;11.10;;
7213;SDS011;3648;50.614;13.830;2022-08-19T00:53:11;12.23;;;11.07;;
7213;SDS011;3648;50.614;13.830;2022-08-19T00:55:40;14.13;;;12.83;;
7213;SDS011;3648;50.614;13.830;2022-08-19T00:58:11;12.60;;;11.60;;
7213;SDS011;3648;50.614;13.830;2022-08-19T01:00:41;13.13;;;11.93;;
7213;SDS011;3648;50.614;13.830;2022-08-19T01:03:10;13.63;;;12.33;;
7213;SDS011;3648;50.614;13.830;2022-08-19T01:05:38;13.23;;;12.00;;
7213;SDS011;3648;50.614;13.830;2022-08-19T01:08:07;14.23;;;12.97;;
7213;SDS011;3648;50.614;13.830;2022-08-19T01:10:36;13.83;;;12.73;;
7213;SDS011;3648;50.614;13.830;2022-08-19T01:13:06;12.23;;;11.23;;
7213;SDS011;3648;50.614;13.830;2022-08-19T01:15:38;13.50;;;12.27;;
7213;SDS011;3648;50.614;13.830;2022-08-19T01:18:11;13.43;;;12.23;;
7213;SDS011;3648;50.614;13.830;2022-08-19T01:20:40;14.10;;;12.90;;
7213;SDS011;3648;50.614;13.830;2022-08-19T01:23:11;14.03;;;12.63;;
7213;SDS011;3648;50.614;13.830;2022-08-19T01:25:41;13.50;;;12.20;;
7213;SDS011;3648;50.614;13.830;2022-08-19T01:28:14;15.00;;;13.53;;
7213;SDS011;3648;50.614;13.830;2022-08-19T01:30:43;15.53;;;14.13;;
7213;SDS011;3648;50.614;13.830;2022-08-19T01:33:10;14.93;;;13.43;;
7213;SDS011;3648;50.614;13.830;2022-08-19T01:35:41;13.87;;;12.57;;
7213;SDS011;3648;50.614;13.830;2022-08-19T01:38:09;14.17;;;12.87;;
7213;SDS011;3648;50.614;13.830;2022-08-19T01:40:46;15.47;;;14.07;;
7213;SDS011;3648;50.614;13.830;2022-08-19T01:43:13;15.47;;;14.17;;
7213;SDS011;3648;50.614;13.830;2022-08-19T01:45:40;16.00;;;14.33;;
7213;SDS011;3648;50.614;13.830;2022-08-19T01:48:07;16.00;;;14.43;;
7213;SDS011;3648;50.614;13.830;2022-08-19T01:50:35;15.80;;;14.40;;
7213;SDS011;3648;50.614;13.830;2022-08-19T01:53:03;16.17;;;14.57;;
7213;SDS011;3648;50.614;13.830;2022-08-19T01:55:32;16.10;;;14.30;;
7213;SDS011;3648;50.614;13.830;2022-08-19T01:58:03;17.47;;;15.77;;
7213;SDS011;3648;50.614;13.830;2022-08-19T02:00:33;15.03;;;13.53;;
7213;SDS011;3648;50.614;13.830;2022-08-19T02:03:00;15.47;;;13.97;;
7213;SDS011;3648;50.614;13.830;2022-08-19T02:05:27;15.97;;;14.53;;
7213;SDS011;3648;50.614;13.830;2022-08-19T02:07:55;15.77;;;14.30;;
7213;SDS011;3648;50.614;13.830;2022-08-19T02:10:22;15.50;;;13.90;;
7213;SDS011;3648;50.614;13.830;2022-08-19T02:12:50;14.67;;;13.37;;
7213;SDS011;3648;50.614;13.830;2022-08-19T02:15:20;14.40;;;13.03;;
7213;SDS011;3648;50.614;13.830;2022-08-19T02:17:47;13.70;;;12.40;;
7213;SDS011;3648;50.614;13.830;2022-08-19T02:20:15;13.50;;;12.20;;
7213;SDS011;3648;50.614;13.830;2022-08-19T02:22:43;14.50;;;13.20;;
7213;SDS011;3648;50.614;13.830;2022-08-19T02:25:10;13.30;;;12.10;;
7213;SDS011;3648;50.614;13.830;2022-08-19T02:27:38;13.20;;;12.00;;
7213;SDS011;3648;50.614;13.830;2022-08-19T02:30:07;12.97;;;11.77;;
7213;SDS011;3648;50.614;13.830;2022-08-19T02:32:38;13.60;;;12.30;;
7213;SDS011;3648;50.614;13.830;2022-08-19T02:35:05;12.67;;;11.57;;
7213;SDS011;3648;50.614;13.830;2022-08-19T02:37:33;14.60;;;13.20;;
7213;SDS011;3648;50.614;13.830;2022-08-19T02:40:18;13.10;;;12.00;;
7213;SDS011;3648;50.614;13.830;2022-08-19T02:42:45;15.13;;;13.47;;
7213;SDS011;3648;50.614;13.830;2022-08-19T02:45:12;12.33;;;11.33;;
7213;SDS011;3648;50.614;13.830;2022-08-19T02:47:41;13.30;;;12.20;;
7213;SDS011;3648;50.614;13.830;2022-08-19T02:50:08;12.93;;;11.70;;
7213;SDS011;3648;50.614;13.830;2022-08-19T02:52:36;13.73;;;12.43;;
7213;SDS011;3648;50.614;13.830;2022-08-19T02:55:03;12.87;;;11.73;;
7213;SDS011;3648;50.614;13.830;2022-08-19T02:57:31;12.67;;;11.57;;
7213;SDS011;3648;50.614;13.830;2022-08-19T02:59:59;12.93;;;11.83;;
7213;SDS011;3648;50.614;13.830;2022-08-19T03:02:26;12.70;;;11.50;;
7213;SDS011;3648;50.614;13.830;2022-08-19T03:04:55;12.23;;;10.93;;
7213;SDS011;3648;50.614;13.830;2022-08-19T03:07:22;12.47;;;11.27;;
7213;SDS011;3648;50.614;13.830;2022-08-19T03:09:49;12.13;;;11.03;;
7213;SDS011;3648;50.614;13.830;2022-08-19T03:12:16;11.63;;;10.63;;
7213;SDS011;3648;50.614;13.830;2022-08-19T03:14:43;12.77;;;11.67;;
7213;SDS011;3648;50.614;13.830;2022-08-19T03:17:10;12.97;;;11.67;;
7213;SDS011;3648;50.614;13.830;2022-08-19T03:19:37;11.90;;;10.83;;
7213;SDS011;3648;50.614;13.830;2022-08-19T03:22:06;12.27;;;11.07;;
7213;SDS011;3648;50.614;13.830;2022-08-19T03:24:33;11.57;;;10.40;;
7213;SDS011;3648;50.614;13.830;2022-08-19T03:26:59;11.87;;;10.77;;
7213;SDS011;3648;50.614;13.830;2022-08-19T03:29:29;12.00;;;10.90;;
7213;SDS011;3648;50.614;13.830;2022-08-19T03:31:57;12.03;;;11.03;;
7213;SDS011;3648;50.614;13.830;2022-08-19T03:34:27;12.57;;;11.37;;
7213;SDS011;3648;50.614;13.830;2022-08-19T03:36:56;12.13;;;11.03;;
7213;SDS011;3648;50.614;13.830;2022-08-19T03:39:26;12.60;;;11.30;;
7213;SDS011;3648;50.614;13.830;2022-08-19T03:41:54;11.80;;;10.67;;
7213;SDS011;3648;50.614;13.830;2022-08-19T03:44:23;12.10;;;11.00;;
7213;SDS011;3648;50.614;13.830;2022-08-19T03:46:51;11.77;;;10.73;;
7213;SDS011;3648;50.614;13.830;2022-08-19T03:49:22;10.97;;;10.07;;
7213;SDS011;3648;50.614;13.830;2022-08-19T03:51:50;11.13;;;10.13;;
7213;SDS011;3648;50.614;13.830;2022-08-19T03:54:18;11.93;;;10.93;;
7213;SDS011;3648;50.614;13.830;2022-08-19T03:56:49;11.10;;;10.00;;
7213;SDS011;3648;50.614;13.830;2022-08-19T03:59:20;10.77;;;9.77;;
7213;SDS011;3648;50.614;13.830;2022-08-19T04:01:51;10.70;;;9.70;;
7213;SDS011;3648;50.614;13.830;2022-08-19T04:04:18;10.23;;;9.23;;
7213;SDS011;3648;50.614;13.830;2022-08-19T04:06:45;9.67;;;8.80;;
7213;SDS011;3648;50.614;13.830;2022-08-19T04:09:12;10.30;;;9.30;;
7213;SDS011;3648;50.614;13.830;2022-08-19T04:11:41;9.83;;;8.83;;
7213;SDS011;3648;50.614;13.830;2022-08-19T04:14:11;9.50;;;8.60;;
7213;SDS011;3648;50.614;13.830;2022-08-19T04:16:40;9.77;;;8.87;;
7213;SDS011;3648;50.614;13.830;2022-08-19T04:19:09;9.13;;;8.33;;
7213;SDS011;3648;50.614;13.830;2022-08-19T04:21:36;9.97;;;8.97;;
7213;SDS011;3648;50.614;13.830;2022-08-19T04:24:04;8.87;;;7.97;;
7213;SDS011;3648;50.614;13.830;2022-08-19T04:26:32;10.00;;;9.10;;
7213;SDS011;3648;50.614;13.830;2022-08-19T04:29:03;9.90;;;9.07;;
7213;SDS011;3648;50.614;13.830;2022-08-19T04:31:33;9.40;;;8.60;;
7213;SDS011;3648;50.614;13.830;2022-08-19T04:34:02;9.77;;;8.77;;
7213;SDS011;3648;50.614;13.830;2022-08-19T04:36:32;10.30;;;9.33;;
7213;SDS011;3648;50.614;13.830;2022-08-19T04:39:03;9.00;;;8.20;;
7213;SDS011;3648;50.614;13.830;2022-08-19T04:41:31;8.90;;;8.10;;
7213;SDS011;3648;50.614;13.830;2022-08-19T04:44:16;8.63;;;7.87;;
7213;SDS011;3648;50.614;13.830;2022-08-19T04:46:45;9.63;;;8.73;;
7213;SDS011;3648;50.614;13.830;2022-08-19T04:49:14;9.33;;;8.43;;
7213;SDS011;3648;50.614;13.830;2022-08-19T04:51:42;9.47;;;8.43;;
7213;SDS011;3648;50.614;13.830;2022-08-19T04:54:10;9.10;;;8.30;;
7213;SDS011;3648;50.614;13.830;2022-08-19T04:56:38;9.83;;;8.87;;
7213;SDS011;3648;50.614;13.830;2022-08-19T04:59:06;9.70;;;8.80;;
7213;SDS011;3648;50.614;13.830;2022-08-19T05:01:35;9.50;;;8.60;;
7213;SDS011;3648;50.614;13.830;2022-08-19T05:04:05;10.33;;;9.33;;
7213;SDS011;3648;50.614;13.830;2022-08-19T05:06:33;12.50;;;10.70;;
7213;SDS011;3648;50.614;13.830;2022-08-19T05:09:03;10.63;;;9.73;;
7213;SDS011;3648;50.614;13.830;2022-08-19T05:11:33;10.53;;;9.63;;
7213;SDS011;3648;50.614;13.830;2022-08-19T05:14:01;10.03;;;9.03;;
7213;SDS011;3648;50.614;13.830;2022-08-19T05:16:29;11.83;;;10.47;;
7213;SDS011;3648;50.614;13.830;2022-08-19T05:18:56;11.10;;;10.10;;
7213;SDS011;3648;50.614;13.830;2022-08-19T05:21:42;9.60;;;8.80;;
7213;SDS011;3648;50.614;13.830;2022-08-19T05:24:27;8.67;;;7.93;;
7213;SDS011;3648;50.614;13.830;2022-08-19T05:26:55;9.57;;;8.67;;
7213;SDS011;3648;50.614;13.830;2022-08-19T05:29:24;9.77;;;8.87;;
7213;SDS011;3648;50.614;13.830;2022-08-19T05:31:53;9.73;;;8.93;;
7213;SDS011;3648;50.614;13.830;2022-08-19T05:34:22;9.20;;;8.33;;
7213;SDS011;3648;50.614;13.830;2022-08-19T05:36:52;9.63;;;8.73;;
7213;SDS011;3648;50.614;13.830;2022-08-19T05:39:22;10.03;;;9.13;;
7213;SDS011;3648;50.614;13.830;2022-08-19T05:41:50;10.93;;;9.47;;
7213;SDS011;3648;50.614;13.830;2022-08-19T05:44:19;11.90;;;10.83;;
7213;SDS011;3648;50.614;13.830;2022-08-19T05:46:47;11.03;;;10.03;;
7213;SDS011;3648;50.614;13.830;2022-08-19T05:49:18;11.17;;;9.60;;
7213;SDS011;3648;50.614;13.830;2022-08-19T05:51:46;10.27;;;9.33;;
7213;SDS011;3648;50.614;13.830;2022-08-19T05:54:15;10.37;;;9.47;;
7213;SDS011;3648;50.614;13.830;2022-08-19T05:56:43;10.23;;;9.40;;
7213;SDS011;3648;50.614;13.830;2022-08-19T05:59:12;9.83;;;9.03;;
7213;SDS011;3648;50.614;13.830;2022-08-19T06:01:42;10.47;;;9.47;;
7213;SDS011;3648;50.614;13.830;2022-08-19T06:04:11;9.33;;;8.50;;
7213;SDS011;3648;50.614;13.830;2022-08-19T06:06:39;9.83;;;8.93;;
7213;SDS011;3648;50.614;13.830;2022-08-19T06:09:07;9.07;;;8.27;;
7213;SDS011;3648;50.614;13.830;2022-08-19T06:11:37;8.57;;;7.77;;
7213;SDS011;3648;50.614;13.830;2022-08-19T06:14:09;9.90;;;9.07;;
7213;SDS011;3648;50.614;13.830;2022-08-19T06:16:39;9.53;;;8.63;;
7213;SDS011;3648;50.614;13.830;2022-08-19T06:19:08;9.83;;;8.87;;
7213;SDS011;3648;50.614;13.830;2022-08-19T06:21:37;10.40;;;9.40;;
7213;SDS011;3648;50.614;13.830;2022-08-19T06:24:06;9.90;;;9.00;;
7213;SDS011;3648;50.614;13.830;2022-08-19T06:26:37;11.87;;;9.97;;
7213;SDS011;3648;50.614;13.830;2022-08-19T06:29:06;14.53;;;10.00;;
7213;SDS011;3648;50.614;13.830;2022-08-19T06:31:34;16.80;;;10.50;;
7213;SDS011;3648;50.614;13.830;2022-08-19T06:34:04;12.77;;;10.00;;
7213;SDS011;3648;50.614;13.830;2022-08-19T06:36:33;13.67;;;10.87;;
7213;SDS011;3648;50.614;13.830;2022-08-19T06:39:02;11.50;;;10.40;;
7213;SDS011;3648;50.614;13.830;2022-08-19T06:41:34;13.13;;;10.63;;
7213;SDS011;3648;50.614;13.830;2022-08-19T06:44:05;11.30;;;10.30;;
7213;SDS011;3648;50.614;13.830;2022-08-19T06:46:33;11.43;;;10.40;;
7213;SDS011;3648;50.614;13.830;2022-08-19T06:49:00;11.50;;;10.30;;
7213;SDS011;3648;50.614;13.830;2022-08-19T06:51:27;10.90;;;10.00;;
7213;SDS011;3648;50.614;13.830;2022-08-19T06:53:55;12.23;;;11.03;;
7213;SDS011;3648;50.614;13.830;2022-08-19T06:56:23;11.10;;;10.00;;
7213;SDS011;3648;50.614;13.830;2022-08-19T06:58:57;11.23;;;10.27;;
7213;SDS011;3648;50.614;13.830;2022-08-19T07:01:24;10.83;;;9.83;;
7213;SDS011;3648;50.614;13.830;2022-08-19T07:03:51;11.60;;;10.60;;
7213;SDS011;3648;50.614;13.830;2022-08-19T07:06:19;11.43;;;10.30;;
7213;SDS011;3648;50.614;13.830;2022-08-19T07:08:47;10.17;;;9.33;;
7213;SDS011;3648;50.614;13.830;2022-08-19T07:11:16;10.27;;;9.33;;
7213;SDS011;3648;50.614;13.830;2022-08-19T07:13:44;10.27;;;9.37;;
7213;SDS011;3648;50.614;13.830;2022-08-19T07:16:15;10.70;;;9.80;;
7213;SDS011;3648;50.614;13.830;2022-08-19T07:18:45;10.63;;;9.53;;
7213;SDS011;3648;50.614;13.830;2022-08-19T07:21:14;10.07;;;9.17;;
7213;SDS011;3648;50.614;13.830;2022-08-19T07:23:42;9.87;;;8.50;;
7213;SDS011;3648;50.614;13.830;2022-08-19T07:26:11;10.10;;;9.20;;
7213;SDS011;3648;50.614;13.830;2022-08-19T07:28:40;9.37;;;8.57;;
7213;SDS011;3648;50.614;13.830;2022-08-19T07:31:09;10.27;;;9.37;;
7213;SDS011;3648;50.614;13.830;2022-08-19T07:33:39;9.77;;;8.97;;
7213;SDS011;3648;50.614;13.830;2022-08-19T07:36:08;9.60;;;8.60;;
7213;SDS011;3648;50.614;13.830;2022-08-19T07:38:37;10.97;;;9.97;;
7213;SDS011;3648;50.614;13.830;2022-08-19T07:41:05;9.83;;;9.03;;
7213;SDS011;3648;50.614;13.830;2022-08-19T07:43:33;9.40;;;8.60;;
7213;SDS011;3648;50.614;13.830;2022-08-19T07:46:00;10.00;;;9.20;;
7213;SDS011;3648;50.614;13.830;2022-08-19T07:48:27;8.83;;;8.03;;
7213;SDS011;3648;50.614;13.830;2022-08-19T07:50:57;8.97;;;8.17;;
7213;SDS011;3648;50.614;13.830;2022-08-19T07:53:27;8.83;;;8.03;;
7213;SDS011;3648;50.614;13.830;2022-08-19T07:55:55;8.70;;;8.00;;
7213;SDS011;3648;50.614;13.830;2022-08-19T07:58:29;8.03;;;7.23;;
7213;SDS011;3648;50.614;13.830;2022-08-19T08:00:57;11.20;;;6.77;;
7213;SDS011;3648;50.614;13.830;2022-08-19T08:03:26;7.73;;;7.03;;
7213;SDS011;3648;50.614;13.830;2022-08-19T08:06:09;7.27;;;6.10;;
7213;SDS011;3648;50.614;13.830;2022-08-19T08:08:53;7.50;;;6.90;;
7213;SDS011;3648;50.614;13.830;2022-08-19T08:11:46;7.20;;;6.60;;
7213;SDS011;3648;50.614;13.830;2022-08-19T08:14:16;6.37;;;5.87;;
7213;SDS011;3648;50.614;13.830;2022-08-19T08:16:44;7.17;;;6.57;;
7213;SDS011;3648;50.614;13.830;2022-08-19T08:19:12;7.17;;;6.57;;
7213;SDS011;3648;50.614;13.830;2022-08-19T08:21:42;7.67;;;6.97;;
7213;SDS011;3648;50.614;13.830;2022-08-19T08:24:09;8.90;;;8.10;;
7213;SDS011;3648;50.614;13.830;2022-08-19T08:26:37;8.17;;;7.37;;
7213;SDS011;3648;50.614;13.830;2022-08-19T08:29:05;8.43;;;7.73;;
7213;SDS011;3648;50.614;13.830;2022-08-19T08:31:38;8.37;;;7.63;;
7213;SDS011;3648;50.614;13.830;2022-08-19T08:34:06;8.60;;;7.80;;
7213;SDS011;3648;50.614;13.830;2022-08-19T08:36:36;8.70;;;8.00;;
7213;SDS011;3648;50.614;13.830;2022-08-19T08:39:08;8.17;;;7.47;;
7213;SDS011;3648;50.614;13.830;2022-08-19T08:41:37;8.10;;;7.40;;
7213;SDS011;3648;50.614;13.830;2022-08-19T08:44:13;7.87;;;7.00;;
7213;SDS011;3648;50.614;13.830;2022-08-19T08:46:45;8.80;;;8.10;;
7213;SDS011;3648;50.614;13.830;2022-08-19T08:49:18;7.20;;;6.60;;
7213;SDS011;3648;50.614;13.830;2022-08-19T08:51:54;9.53;;;8.40;;
7213;SDS011;3648;50.614;13.830;2022-08-19T08:54:29;10.03;;;9.13;;
7213;SDS011;3648;50.614;13.830;2022-08-19T08:57:00;8.30;;;7.50;;
7213;SDS011;3648;50.614;13.830;2022-08-19T08:59:31;7.73;;;7.00;;
7213;SDS011;3648;50.614;13.830;2022-08-19T09:02:02;9.40;;;8.50;;
7213;SDS011;3648;50.614;13.830;2022-08-19T09:04:29;8.57;;;7.90;;
7213;SDS011;3648;50.614;13.830;2022-08-19T09:06:59;8.80;;;8.00;;
7213;SDS011;3648;50.614;13.830;2022-08-19T09:09:40;8.40;;;7.70;;
7213;SDS011;3648;50.614;13.830;2022-08-19T09:12:11;9.00;;;8.17;;
7213;SDS011;3648;50.614;13.830;2022-08-19T09:14:45;7.87;;;7.07;;
7213;SDS011;3648;50.614;13.830;2022-08-19T09:17:20;7.50;;;6.90;;
7213;SDS011;3648;50.614;13.830;2022-08-19T09:19:56;7.50;;;6.90;;
7213;SDS011;3648;50.614;13.830;2022-08-19T09:22:26;7.43;;;6.73;;
7213;SDS011;3648;50.614;13.830;2022-08-19T09:24:54;8.10;;;7.30;;
7213;SDS011;3648;50.614;13.830;2022-08-19T09:27:22;7.47;;;6.77;;
7213;SDS011;3648;50.614;13.830;2022-08-19T09:29:50;6.63;;;6.13;;
7213;SDS011;3648;50.614;13.830;2022-08-19T09:32:18;8.00;;;7.33;;
7213;SDS011;3648;50.614;13.830;2022-08-19T09:34:46;6.87;;;6.37;;
7213;SDS011;3648;50.614;13.830;2022-08-19T09:37:13;7.83;;;7.10;;
7213;SDS011;3648;50.614;13.830;2022-08-19T09:39:40;6.33;;;5.83;;
7213;SDS011;3648;50.614;13.830;2022-08-19T09:42:09;6.60;;;6.00;;
7213;SDS011;3648;50.614;13.830;2022-08-19T09:44:37;7.60;;;7.00;;
7213;SDS011;3648;50.614;13.830;2022-08-19T09:47:04;6.70;;;6.20;;
7213;SDS011;3648;50.614;13.830;2022-08-19T09:49:32;6.53;;;5.93;;
7213;SDS011;3648;50.614;13.830;2022-08-19T09:51:59;6.53;;;5.93;;
7213;SDS011;3648;50.614;13.830;2022-08-19T09:54:26;7.43;;;6.63;;
7213;SDS011;3648;50.614;13.830;2022-08-19T09:56:54;6.37;;;5.87;;
7213;SDS011;3648;50.614;13.830;2022-08-19T09:59:23;6.90;;;6.30;;
7213;SDS011;3648;50.614;13.830;2022-08-19T10:01:50;6.93;;;6.33;;
7213;SDS011;3648;50.614;13.830;2022-08-19T10:04:17;6.50;;;5.97;;
7213;SDS011;3648;50.614;13.830;2022-08-19T10:06:44;6.53;;;5.93;;
7213;SDS011;3648;50.614;13.830;2022-08-19T10:09:12;6.03;;;5.53;;
7213;SDS011;3648;50.614;13.830;2022-08-19T10:11:41;6.03;;;5.53;;
7213;SDS011;3648;50.614;13.830;2022-08-19T10:14:10;6.27;;;5.53;;
7213;SDS011;3648;50.614;13.830;2022-08-19T10:16:39;5.27;;;4.87;;
7213;SDS011;3648;50.614;13.830;2022-08-19T10:19:07;7.17;;;4.60;;
7213;SDS011;3648;50.614;13.830;2022-08-19T10:21:35;5.37;;;4.97;;
7213;SDS011;3648;50.614;13.830;2022-08-19T10:24:04;5.03;;;4.63;;
7213;SDS011;3648;50.614;13.830;2022-08-19T10:26:33;4.30;;;4.00;;
7213;SDS011;3648;50.614;13.830;2022-08-19T10:29:02;4.27;;;3.83;;
7213;SDS011;3648;50.614;13.830;2022-08-19T10:31:31;4.43;;;4.03;;
7213;SDS011;3648;50.614;13.830;2022-08-19T10:34:01;4.30;;;4.00;;
7213;SDS011;3648;50.614;13.830;2022-08-19T10:36:29;4.80;;;4.40;;
7213;SDS011;3648;50.614;13.830;2022-08-19T10:38:58;4.50;;;4.20;;
7213;SDS011;3648;50.614;13.830;2022-08-19T10:41:27;5.33;;;4.90;;
7213;SDS011;3648;50.614;13.830;2022-08-19T10:43:57;4.93;;;4.53;;
7213;SDS011;3648;50.614;13.830;2022-08-19T10:46:25;6.00;;;5.50;;
7213;SDS011;3648;50.614;13.830;2022-08-19T10:48:57;7.37;;;6.77;;
7213;SDS011;3648;50.614;13.830;2022-08-19T10:51:29;6.93;;;6.13;;
7213;SDS011;3648;50.614;13.830;2022-08-19T10:54:14;6.53;;;5.93;;
7213;SDS011;3648;50.614;13.830;2022-08-19T10:56:41;6.70;;;6.10;;
7213;SDS011;3648;50.614;13.830;2022-08-19T10:59:16;8.13;;;7.33;;
7213;SDS011;3648;50.614;13.830;2022-08-19T11:01:45;7.53;;;6.80;;
7213;SDS011;3648;50.614;13.830;2022-08-19T11:04:13;7.67;;;6.97;;
7213;SDS011;3648;50.614;13.830;2022-08-19T11:06:44;7.90;;;7.13;;
7213;SDS011;3648;50.614;13.830;2022-08-19T11:09:12;7.40;;;6.73;;
7213;SDS011;3648;50.614;13.830;2022-08-19T11:11:41;7.80;;;7.10;;
7213;SDS011;3648;50.614;13.830;2022-08-19T11:14:09;8.40;;;7.70;;
7213;SDS011;3648;50.614;13.830;2022-08-19T11:16:38;8.77;;;8.07;;
7213;SDS011;3648;50.614;13.830;2022-08-19T11:19:07;9.37;;;8.57;;
7213;SDS011;3648;50.614;13.830;2022-08-19T11:21:37;9.73;;;8.90;;
7213;SDS011;3648;50.614;13.830;2022-08-19T11:24:09;10.17;;;8.83;;
7213;SDS011;3648;50.614;13.830;2022-08-19T11:26:38;9.97;;;9.07;;
7213;SDS011;3648;50.614;13.830;2022-08-19T11:29:07;10.10;;;9.30;;
7213;SDS011;3648;50.614;13.830;2022-08-19T11:31:38;9.80;;;8.97;;
7213;SDS011;3648;50.614;13.830;2022-08-19T11:34:13;9.60;;;8.80;;
7213;SDS011;3648;50.614;13.830;2022-08-19T11:36:43;10.83;;;9.93;;
7213;SDS011;3648;50.614;13.830;2022-08-19T11:39:13;10.13;;;9.27;;
7213;SDS011;3648;50.614;13.830;2022-08-19T11:41:42;10.60;;;9.67;;
7213;SDS011;3648;50.614;13.830;2022-08-19T11:44:09;11.00;;;9.90;;
7213;SDS011;3648;50.614;13.830;2022-08-19T11:46:39;11.40;;;10.30;;
7213;SDS011;3648;50.614;13.830;2022-08-19T11:49:10;10.03;;;9.23;;
7213;SDS011;3648;50.614;13.830;2022-08-19T11:51:38;10.93;;;10.03;;
7213;SDS011;3648;50.614;13.830;2022-08-19T11:54:07;10.13;;;9.20;;
7213;SDS011;3648;50.614;13.830;2022-08-19T11:56:36;10.63;;;9.60;;
7213;SDS011;3648;50.614;13.830;2022-08-19T11:59:03;9.77;;;8.97;;
7213;SDS011;3648;50.614;13.830;2022-08-19T12:01:31;10.53;;;9.63;;
7213;SDS011;3648;50.614;13.830;2022-08-19T12:03:58;10.40;;;9.40;;
7213;SDS011;3648;50.614;13.830;2022-08-19T12:06:27;10.27;;;9.37;;
7213;SDS011;3648;50.614;13.830;2022-08-19T12:08:57;9.50;;;8.70;;
7213;SDS011;3648;50.614;13.830;2022-08-19T12:11:25;8.00;;;7.30;;
7213;SDS011;3648;50.614;13.830;2022-08-19T12:13:54;8.10;;;7.40;;
7213;SDS011;3648;50.614;13.830;2022-08-19T12:16:23;8.37;;;7.53;;
7213;SDS011;3648;50.614;13.830;2022-08-19T12:18:53;11.77;;;8.30;;
7213;SDS011;3648;50.614;13.830;2022-08-19T12:21:22;8.40;;;7.70;;
7213;SDS011;3648;50.614;13.830;2022-08-19T12:23:53;7.67;;;7.03;;
7213;SDS011;3648;50.614;13.830;2022-08-19T12:26:22;8.57;;;7.87;;
7213;SDS011;3648;50.614;13.830;2022-08-19T12:28:49;7.90;;;7.20;;
7213;SDS011;3648;50.614;13.830;2022-08-19T12:31:18;8.63;;;7.93;;
7213;SDS011;3648;50.614;13.830;2022-08-19T12:33:45;7.90;;;7.20;;
7213;SDS011;3648;50.614;13.830;2022-08-19T12:36:14;7.80;;;7.10;;
7213;SDS011;3648;50.614;13.830;2022-08-19T12:38:43;8.80;;;8.00;;
7213;SDS011;3648;50.614;13.830;2022-08-19T12:41:11;9.87;;;7.53;;
7213;SDS011;3648;50.614;13.830;2022-08-19T12:43:40;7.73;;;7.03;;
7213;SDS011;3648;50.614;13.830;2022-08-19T12:46:08;8.00;;;7.27;;
7213;SDS011;3648;50.614;13.830;2022-08-19T12:48:37;7.10;;;6.50;;
7213;SDS011;3648;50.614;13.830;2022-08-19T12:51:09;7.07;;;6.47;;
7213;SDS011;3648;50.614;13.830;2022-08-19T12:53:37;6.97;;;6.33;;
7213;SDS011;3648;50.614;13.830;2022-08-19T12:56:05;6.20;;;5.63;;
7213;SDS011;3648;50.614;13.830;2022-08-19T12:58:32;6.83;;;6.23;;
7213;SDS011;3648;50.614;13.830;2022-08-19T13:01:05;6.27;;;5.77;;
7213;SDS011;3648;50.614;13.830;2022-08-19T13:03:33;7.10;;;6.40;;
7213;SDS011;3648;50.614;13.830;2022-08-19T13:06:01;7.13;;;6.43;;
7213;SDS011;3648;50.614;13.830;2022-08-19T13:08:29;6.30;;;5.77;;
7213;SDS011;3648;50.614;13.830;2022-08-19T13:10:57;6.93;;;6.33;;
7213;SDS011;3648;50.614;13.830;2022-08-19T13:13:32;6.83;;;6.30;;
7213;SDS011;3648;50.614;13.830;2022-08-19T13:15:59;7.00;;;6.30;;
7213;SDS011;3648;50.614;13.830;2022-08-19T13:18:28;6.60;;;6.00;;
7213;SDS011;3648;50.614;13.830;2022-08-19T13:20:56;6.47;;;5.90;;
7213;SDS011;3648;50.614;13.830;2022-08-19T13:23:25;7.30;;;6.50;;
7213;SDS011;3648;50.614;13.830;2022-08-19T13:25:55;7.10;;;6.50;;
7213;SDS011;3648;50.614;13.830;2022-08-19T13:28:23;7.40;;;6.70;;
7213;SDS011;3648;50.614;13.830;2022-08-19T13:30:51;6.40;;;5.90;;
7213;SDS011;3648;50.614;13.830;2022-08-19T13:33:44;6.33;;;5.83;;
7213;SDS011;3648;50.614;13.830;2022-08-19T13:36:11;6.57;;;6.00;;
7213;SDS011;3648;50.614;13.830;2022-08-19T13:38:40;6.70;;;6.10;;
7213;SDS011;3648;50.614;13.830;2022-08-19T13:41:07;7.67;;;6.90;;
7213;SDS011;3648;50.614;13.830;2022-08-19T13:43:34;6.40;;;5.90;;
7213;SDS011;3648;50.614;13.830;2022-08-19T13:46:08;7.00;;;6.40;;
7213;SDS011;3648;50.614;13.830;2022-08-19T13:48:38;6.83;;;6.13;;
7213;SDS011;3648;50.614;13.830;2022-08-19T13:51:05;6.17;;;5.67;;
7213;SDS011;3648;50.614;13.830;2022-08-19T13:53:35;5.37;;;4.97;;
7213;SDS011;3648;50.614;13.830;2022-08-19T13:56:06;6.87;;;6.20;;
7213;SDS011;3648;50.614;13.830;2022-08-19T13:58:34;7.10;;;6.40;;
7213;SDS011;3648;50.614;13.830;2022-08-19T14:01:02;7.20;;;6.50;;
7213;SDS011;3648;50.614;13.830;2022-08-19T14:03:30;7.20;;;6.50;;
7213;SDS011;3648;50.614;13.830;2022-08-19T14:05:58;6.17;;;5.67;;
7213;SDS011;3648;50.614;13.830;2022-08-19T14:08:25;6.37;;;5.87;;
7213;SDS011;3648;50.614;13.830;2022-08-19T14:10:53;6.30;;;5.77;;
7213;SDS011;3648;50.614;13.830;2022-08-19T14:13:22;6.57;;;6.07;;
7213;SDS011;3648;50.614;13.830;2022-08-19T14:15:50;5.40;;;5.00;;
7213;SDS011;3648;50.614;13.830;2022-08-19T14:18:18;5.27;;;4.70;;
7213;SDS011;3648;50.614;13.830;2022-08-19T14:20:45;5.00;;;4.60;;
7213;SDS011;3648;50.614;13.830;2022-08-19T14:23:12;4.97;;;4.57;;
7213;SDS011;3648;50.614;13.830;2022-08-19T14:25:39;4.97;;;4.57;;
7213;SDS011;3648;50.614;13.830;2022-08-19T14:28:06;4.97;;;4.57;;
7213;SDS011;3648;50.614;13.830;2022-08-19T14:30:35;5.73;;;5.23;;
7213;SDS011;3648;50.614;13.830;2022-08-19T14:33:03;4.70;;;4.30;;
7213;SDS011;3648;50.614;13.830;2022-08-19T14:35:32;5.03;;;4.63;;
7213;SDS011;3648;50.614;13.830;2022-08-19T14:38:00;4.23;;;3.93;;
7213;SDS011;3648;50.614;13.830;2022-08-19T14:40:28;4.83;;;4.43;;
7213;SDS011;3648;50.614;13.830;2022-08-19T14:42:57;5.27;;;4.87;;
7213;SDS011;3648;50.614;13.830;2022-08-19T14:45:29;4.93;;;4.37;;
7213;SDS011;3648;50.614;13.830;2022-08-19T14:47:58;5.57;;;5.07;;
7213;SDS011;3648;50.614;13.830;2022-08-19T14:50:25;4.43;;;4.03;;
7213;SDS011;3648;50.614;13.830;2022-08-19T14:52:57;4.93;;;4.40;;
7213;SDS011;3648;50.614;13.830;2022-08-19T14:55:26;4.27;;;3.87;;
7213;SDS011;3648;50.614;13.830;2022-08-19T14:57:53;4.50;;;4.10;;
7213;SDS011;3648;50.614;13.830;2022-08-19T15:00:21;5.07;;;4.57;;
7213;SDS011;3648;50.614;13.830;2022-08-19T15:02:49;4.83;;;4.43;;